Time;durP1;ratioP1;P1;durP2;ratioP2;P2;SDS_P1;SDS_P2;PMS_P1;PMS_P2;Temp;Humidity;BMP_temperature;BMP_pressure;BME280_temperature;BME280_humidity;BME280_pressure;Samples;Min_cycle;Max_cycle;Signal;HPM_P1;HPM_P2
2024/04/22 00:01:49;;;;;;;2.90;1.50;;;23.80;99.90;;;;;;5359139;21;20009;-54
2024/04/22 00:04:15;;;;;;;3.22;1.40;;;23.80;99.90;;;;;;5345274;26;20083;-53
2024/04/22 00:06:43;;;;;;;3.63;1.65;;;23.80;99.90;;;;;;5345316;26;20012;-60
2024/04/22 00:09:10;;;;;;;4.22;1.88;;;23.80;99.90;;;;;;5345072;26;19997;-53
2024/04/22 00:11:36;;;;;;;5.05;1.83;;;23.80;99.90;;;;;;5344409;26;20411;-52
2024/04/22 00:14:02;;;;;;;3.85;1.60;;;23.80;99.90;;;;;;5342060;26;20000;-53
2024/04/22 00:16:28;;;;;;;5.50;2.10;;;23.80;99.90;;;;;;5340077;26;20456;-54
2024/04/22 00:18:54;;;;;;;3.75;1.85;;;23.80;99.90;;;;;;5342064;26;20035;-54
2024/04/22 00:21:20;;;;;;;5.28;2.08;;;23.80;99.90;;;;;;5342281;26;20001;-54
2024/04/22 00:23:45;;;;;;;4.10;1.60;;;23.80;99.90;;;;;;5341924;26;20522;-54
2024/04/22 00:26:11;;;;;;;5.25;1.88;;;23.80;99.90;;;;;;5342010;26;20011;-54
2024/04/22 00:28:37;;;;;;;3.22;1.98;;;23.80;99.90;;;;;;5344611;26;20459;-53
2024/04/22 00:31:03;;;;;;;4.03;1.67;;;23.80;99.90;;;;;;5343268;26;20008;-54
2024/04/22 00:33:29;;;;;;;2.42;1.10;;;23.80;99.90;;;;;;5345758;26;20001;-53
2024/04/22 00:35:56;;;;;;;4.32;1.88;;;23.80;99.90;;;;;;5345383;26;19997;-54
2024/04/22 00:38:22;;;;;;;2.87;1.20;;;23.80;99.90;;;;;;5345801;26;20445;-54
2024/04/22 00:40:48;;;;;;;3.75;1.60;;;23.80;99.90;;;;;;5345441;26;20001;-54
2024/04/22 00:43:13;;;;;;;3.33;1.70;;;23.80;99.90;;;;;;5345247;26;20033;-53
2024/04/22 00:45:39;;;;;;;3.72;1.58;;;23.80;99.90;;;;;;5345223;26;20429;-53
2024/04/22 00:48:06;;;;;;;4.35;1.98;;;23.80;99.90;;;;;;5345387;26;20075;-53
2024/04/22 00:50:32;;;;;;;2.42;1.77;;;23.80;99.90;;;;;;5372591;26;20011;-54
2024/04/22 00:52:59;;;;;;;3.85;1.73;;;23.80;99.90;;;;;;5345147;26;20001;-54
2024/04/22 00:55:26;;;;;;;4.18;1.90;;;23.70;99.90;;;;;;5348397;26;20325;-54
2024/04/22 00:57:56;;;;;;;2.90;1.38;;;23.70;99.90;;;;;;5348606;26;20004;-53
2024/04/22 01:02:52;;;;;;;4.88;2.03;;;23.70;99.90;;;;;;5344264;26;20092;-51
2024/04/22 01:05:18;;;;;;;3.22;1.83;;;23.70;99.90;;;;;;5348238;26;20008;-51
2024/04/22 01:07:44;;;;;;;4.05;1.38;;;23.70;99.90;;;;;;5348269;26;19998;-52
2024/04/22 01:10:10;;;;;;;2.88;1.83;;;23.70;99.90;;;;;;5346783;26;20071;-51
2024/04/22 01:12:36;;;;;;;4.88;2.00;;;23.70;99.90;;;;;;5348375;26;20453;-52
2024/04/22 01:15:05;;;;;;;3.42;1.38;;;23.70;99.90;;;;;;5348258;26;20467;-52
2024/04/22 01:17:43;;;;;;;3.33;1.58;;;23.70;99.90;;;;;;5348348;26;20442;-51
2024/04/22 01:20:10;;;;;;;3.30;1.63;;;23.70;99.90;;;;;;5348412;26;20071;-51
2024/04/22 01:22:37;;;;;;;4.13;2.10;;;23.70;99.90;;;;;;5348218;26;20005;-50
2024/04/22 01:25:03;;;;;;;3.42;1.70;;;23.60;99.90;;;;;;5347918;26;20392;-51
2024/04/22 01:27:31;;;;;;;2.55;1.30;;;23.70;99.90;;;;;;5348042;26;20344;-51
2024/04/22 01:29:57;;;;;;;4.68;1.80;;;23.60;99.90;;;;;;5348248;26;20071;-50
2024/04/22 01:32:23;;;;;;;3.10;1.88;;;23.60;99.90;;;;;;5347963;26;19996;-51
2024/04/22 01:34:50;;;;;;;3.47;1.60;;;23.60;99.90;;;;;;5348083;26;20007;-51
2024/04/22 01:37:16;;;;;;;2.60;1.70;;;23.60;99.90;;;;;;5347937;26;19996;-51
2024/04/22 01:39:43;;;;;;;2.53;1.35;;;23.60;99.90;;;;;;5348367;26;20009;-51
2024/04/22 01:42:09;;;;;;;3.55;1.70;;;23.60;99.90;;;;;;5348045;26;20012;-50
2024/04/22 01:44:34;;;;;;;3.42;1.67;;;23.60;99.90;;;;;;5348041;26;20001;-51
2024/04/22 01:47:00;;;;;;;2.17;1.55;;;23.60;99.90;;;;;;5347830;26;20333;-50
2024/04/22 01:49:26;;;;;;;2.35;1.75;;;23.60;99.90;;;;;;5348063;26;20015;-50
2024/04/22 01:51:52;;;;;;;2.53;1.38;;;23.60;99.90;;;;;;5347776;26;20016;-50
2024/04/22 01:54:18;;;;;;;2.95;2.10;;;23.60;99.90;;;;;;5346295;26;20005;-50
2024/04/22 01:56:44;;;;;;;2.50;1.92;;;23.60;99.90;;;;;;5347965;26;20004;-49
2024/04/22 01:59:09;;;;;;;3.63;2.10;;;23.60;99.90;;;;;;5347969;26;20007;-50
2024/04/22 02:01:35;;;;;;;3.15;1.80;;;23.50;99.90;;;;;;5379332;21;20340;-52
2024/04/22 02:04:01;;;;;;;3.45;1.98;;;23.60;99.90;;;;;;5410294;26;20091;-52
2024/04/22 02:06:27;;;;;;;3.35;2.03;;;23.50;99.90;;;;;;5381402;26;20011;-52
2024/04/22 02:08:52;;;;;;;4.03;2.45;;;23.50;99.90;;;;;;5382348;26;20388;-52
2024/04/22 02:11:18;;;;;;;3.40;1.77;;;23.60;99.90;;;;;;5382216;26;20000;-51
2024/04/22 02:13:44;;;;;;;6.68;2.33;;;23.50;99.90;;;;;;5380662;26;20030;-51
2024/04/22 02:16:10;;;;;;;3.63;1.80;;;23.50;99.90;;;;;;5380571;26;20102;-51
2024/04/22 02:18:36;;;;;;;4.68;1.98;;;23.50;99.90;;;;;;5380427;26;19993;-52
2024/04/22 02:21:01;;;;;;;4.00;2.13;;;23.50;99.90;;;;;;5382229;26;20012;-52
2024/04/22 02:23:27;;;;;;;3.22;1.80;;;23.50;99.90;;;;;;5382017;26;20406;-52
2024/04/22 02:25:53;;;;;;;3.30;2.05;;;23.50;99.90;;;;;;5382193;26;20007;-52
2024/04/22 02:28:19;;;;;;;3.03;1.65;;;23.50;99.90;;;;;;5382263;26;20376;-52
2024/04/22 02:30:45;;;;;;;3.33;1.80;;;23.50;99.90;;;;;;5380497;26;20342;-52
2024/04/22 02:33:10;;;;;;;2.70;1.67;;;23.50;99.90;;;;;;5382144;26;19999;-52
2024/04/22 02:35:36;;;;;;;2.97;1.83;;;23.50;99.90;;;;;;5382077;26;19993;-53
2024/04/22 02:38:03;;;;;;;2.85;1.70;;;23.50;99.90;;;;;;5382122;26;20008;-53
2024/04/22 02:40:29;;;;;;;4.18;2.00;;;23.50;99.90;;;;;;5381977;26;20011;-52
2024/04/22 02:42:54;;;;;;;4.07;2.30;;;23.50;99.90;;;;;;5381972;26;19992;-52
2024/04/22 02:45:21;;;;;;;4.05;1.90;;;23.40;99.90;;;;;;5381709;26;20003;-52
2024/04/22 02:47:47;;;;;;;2.92;2.10;;;23.50;99.90;;;;;;5381856;26;20042;-52
2024/04/22 02:50:13;;;;;;;4.72;1.75;;;23.50;99.90;;;;;;5381863;26;20003;-52
2024/04/22 02:52:39;;;;;;;3.40;1.77;;;23.50;99.90;;;;;;5381820;26;20004;-52
2024/04/22 02:55:05;;;;;;;2.90;1.73;;;23.50;99.90;;;;;;5381826;26;20510;-52
2024/04/22 02:57:31;;;;;;;3.00;1.75;;;23.40;99.90;;;;;;5381674;26;20068;-51
2024/04/22 02:59:57;;;;;;;3.78;2.25;;;23.40;99.90;;;;;;5381615;26;20000;-52
2024/04/22 03:02:23;;;;;;;4.95;1.75;;;23.40;99.90;;;;;;5380318;26;19996;-52
2024/04/22 03:04:49;;;;;;;5.20;2.20;;;23.40;99.90;;;;;;5381578;26;20015;-52
2024/04/22 03:07:15;;;;;;;3.85;2.10;;;23.40;99.90;;;;;;5381877;26;20006;-52
2024/04/22 03:09:42;;;;;;;5.15;1.70;;;23.40;99.90;;;;;;5381460;26;20168;-52
2024/04/22 03:12:14;;;;;;;3.55;1.98;;;23.40;99.90;;;;;;5381327;26;20313;-52
2024/04/22 03:14:40;;;;;;;4.53;2.42;;;23.40;99.90;;;;;;5381370;26;20004;-52
2024/04/22 03:17:06;;;;;;;4.72;2.00;;;23.40;99.90;;;;;;5381292;26;19996;-52
2024/04/22 03:19:32;;;;;;;3.92;1.83;;;23.40;99.90;;;;;;5381413;26;19996;-52
2024/04/22 03:21:58;;;;;;;4.32;2.03;;;23.30;99.90;;;;;;5381226;26;20069;-52
2024/04/22 03:24:24;;;;;;;3.45;1.90;;;23.30;99.90;;;;;;5409106;26;19996;-53
2024/04/22 03:26:49;;;;;;;3.60;1.92;;;23.30;99.90;;;;;;5381648;26;20459;-52
2024/04/22 03:29:16;;;;;;;2.92;1.70;;;23.30;99.90;;;;;;5381489;26;20006;-52
2024/04/22 03:31:42;;;;;;;2.45;1.50;;;23.40;99.90;;;;;;5381231;26;20004;-53
2024/04/22 03:34:08;;;;;;;3.63;1.58;;;23.30;99.90;;;;;;5381153;26;19996;-53
2024/04/22 03:36:34;;;;;;;3.50;1.65;;;23.40;99.90;;;;;;5360528;26;20408;-53
2024/04/22 03:38:59;;;;;;;2.85;1.67;;;23.30;99.90;;;;;;5376543;26;20003;-52
2024/04/22 03:41:28;;;;;;;3.42;2.00;;;23.30;99.90;;;;;;5380286;26;19996;-53
2024/04/22 03:43:54;;;;;;;3.00;1.48;;;23.30;99.90;;;;;;5377759;26;20546;-52
2024/04/22 03:51:48;;;;;;;4.28;1.85;;;23.30;99.90;;;;;;5377721;26;20474;-52
2024/04/22 03:54:14;;;;;;;4.07;1.92;;;23.30;99.90;;;;;;5377637;26;20038;-52
2024/04/22 03:56:40;;;;;;;3.88;1.70;;;23.30;99.90;;;;;;5377463;26;19996;-52
2024/04/22 03:59:06;;;;;;;2.78;1.70;;;23.30;99.90;;;;;;5380591;26;20368;-52
2024/04/22 04:01:32;;;;;;;4.85;1.77;;;23.30;99.90;;;;;;5381208;26;20383;-52
2024/04/22 04:03:59;;;;;;;2.92;1.85;;;23.30;99.90;;;;;;5380891;26;20000;-52
2024/04/22 04:06:28;;;;;;;3.10;1.60;;;23.30;99.90;;;;;;5381038;26;19996;-52
2024/04/22 04:08:54;;;;;;;3.78;1.45;;;23.30;99.90;;;;;;5378821;26;20007;-52
2024/04/22 04:11:23;;;;;;;2.20;1.60;;;23.20;99.90;;;;;;5380710;26;20006;-53
2024/04/22 04:13:49;;;;;;;2.97;1.50;;;23.20;99.90;;;;;;5380828;26;19996;-55
2024/04/22 04:16:15;;;;;;;5.30;2.05;;;23.20;99.90;;;;;;5380472;26;20000;-52
2024/04/22 04:18:41;;;;;;;4.15;1.77;;;23.20;99.90;;;;;;5408285;26;20012;-53
2024/04/22 04:21:07;;;;;;;4.80;2.13;;;23.20;99.90;;;;;;5380337;26;20073;-52
2024/04/22 04:23:33;;;;;;;2.65;1.60;;;23.20;99.90;;;;;;5380376;26;20004;-52
2024/04/22 04:26:01;;;;;;;2.92;1.90;;;23.20;99.90;;;;;;5380500;26;20070;-53
2024/04/22 04:28:28;;;;;;;4.68;1.63;;;23.20;99.90;;;;;;5379820;26;20036;-52
2024/04/22 04:30:58;;;;;;;4.20;1.42;;;23.20;99.90;;;;;;5380591;26;20006;-52
2024/04/22 04:33:24;;;;;;;2.88;1.42;;;23.20;99.90;;;;;;5380120;26;20039;-52
2024/04/22 04:36:03;;;;;;;2.42;1.30;;;23.20;99.90;;;;;;5380356;26;20004;-53
2024/04/22 04:38:29;;;;;;;4.30;1.52;;;23.20;99.90;;;;;;5380303;26;20010;-52
2024/04/22 04:40:55;;;;;;;2.67;1.40;;;23.20;99.90;;;;;;5380155;26;20011;-52
2024/04/22 04:43:21;;;;;;;3.45;1.30;;;23.10;99.90;;;;;;5380519;26;20333;-52
2024/04/22 04:45:47;;;;;;;4.05;1.60;;;23.10;99.90;;;;;;5379976;26;20004;-52
2024/04/22 04:48:13;;;;;;;4.03;1.30;;;23.20;99.90;;;;;;5379968;26;19996;-51
2024/04/22 04:50:39;;;;;;;2.80;1.65;;;23.10;99.90;;;;;;5379979;26;20011;-52
2024/04/22 04:53:05;;;;;;;3.28;1.60;;;23.10;99.90;;;;;;5380154;26;20025;-52
2024/04/22 04:55:32;;;;;;;4.32;1.85;;;23.10;99.90;;;;;;5379842;26;19997;-52
2024/04/22 04:57:58;;;;;;;4.22;1.70;;;23.00;99.90;;;;;;5377979;26;20036;-52
2024/04/22 05:00:24;;;;;;;3.08;1.40;;;23.10;99.90;;;;;;5379603;26;20001;-52
2024/04/22 05:02:50;;;;;;;3.63;1.77;;;23.10;99.90;;;;;;5375601;26;20000;-52
2024/04/22 05:05:16;;;;;;;2.60;1.70;;;23.10;99.90;;;;;;5375884;26;20011;-52
2024/04/22 05:07:42;;;;;;;4.03;1.35;;;23.00;99.90;;;;;;5376102;26;19996;-52
2024/04/22 05:10:12;;;;;;;4.18;1.40;;;23.00;99.90;;;;;;5376024;26;20082;-52
2024/04/22 05:12:38;;;;;;;4.95;1.92;;;23.00;99.90;;;;;;5376144;26;19996;-52
2024/04/22 05:15:05;;;;;;;4.78;1.48;;;23.00;99.90;;;;;;5375930;26;20000;-52
2024/04/22 05:17:31;;;;;;;3.22;1.42;;;23.00;99.90;;;;;;5377906;26;20000;-52
2024/04/22 05:19:56;;;;;;;3.35;1.50;;;23.00;99.90;;;;;;5379467;26;20015;-52
2024/04/22 05:22:22;;;;;;;1.58;1.20;;;23.00;99.90;;;;;;5379815;26;20321;-52
2024/04/22 05:24:48;;;;;;;2.97;1.25;;;23.00;99.90;;;;;;5379537;26;20430;-52
2024/04/22 05:27:14;;;;;;;3.58;1.50;;;23.00;99.90;;;;;;5379251;26;20007;-52
2024/04/22 05:29:40;;;;;;;3.83;1.38;;;23.00;99.90;;;;;;5379214;26;20096;-51
2024/04/22 05:32:06;;;;;;;2.63;1.10;;;23.00;99.90;;;;;;5379214;26;20000;-52
2024/04/22 05:37:17;;;;;;;2.63;1.30;;;23.00;99.90;;;;;;5379299;26;20032;-51
2024/04/22 05:39:43;;;;;;;2.27;1.30;;;23.00;99.90;;;;;;5379353;26;20077;-52
2024/04/22 05:42:08;;;;;;;4.13;1.10;;;23.00;99.90;;;;;;5409733;26;20008;-52
2024/04/22 05:44:34;;;;;;;2.38;1.40;;;22.90;99.90;;;;;;5382775;26;20078;-51
2024/04/22 05:47:01;;;;;;;2.35;1.35;;;22.90;99.90;;;;;;5410280;26;20352;-52
2024/04/22 05:49:26;;;;;;;2.75;1.30;;;22.90;99.90;;;;;;5382323;26;20008;-51
2024/04/22 05:51:53;;;;;;;2.15;1.02;;;22.90;99.90;;;;;;5380836;26;20069;-52
2024/04/22 05:54:18;;;;;;;5.07;1.80;;;22.90;99.90;;;;;;5382334;26;20000;-52
2024/04/22 05:56:44;;;;;;;5.43;1.77;;;22.90;99.90;;;;;;5382495;26;20000;-52
2024/04/22 05:59:12;;;;;;;3.67;1.52;;;22.90;99.90;;;;;;5410240;26;20000;-52
2024/04/22 06:01:38;;;;;;;4.05;1.52;;;22.90;99.90;;;;;;5380575;26;20028;-52
2024/04/22 06:04:05;;;;;;;3.05;1.13;;;22.90;99.90;;;;;;5382877;26;20448;-52
2024/04/22 06:06:33;;;;;;;3.42;1.30;;;22.90;99.90;;;;;;5382677;26;20031;-51
2024/04/22 06:09:22;;;;;;;1.92;1.35;;;22.90;99.90;;;;;;5382577;26;20004;-52
2024/04/22 06:11:49;;;;;;;3.40;1.58;;;22.90;99.90;;;;;;5382319;26;19996;-52
2024/04/22 06:14:15;;;;;;;1.73;1.30;;;22.90;99.90;;;;;;5382562;26;20000;-52
2024/04/22 06:16:41;;;;;;;3.85;1.33;;;22.90;99.90;;;;;;5382616;26;20443;-51
2024/04/22 06:19:08;;;;;;;3.90;1.60;;;22.90;99.90;;;;;;5382310;26;20008;-52
2024/04/22 06:21:34;;;;;;;3.22;1.30;;;22.90;99.90;;;;;;5382431;26;20069;-52
2024/04/22 06:24:00;;;;;;;2.03;1.30;;;22.90;99.90;;;;;;5410162;26;20005;-52
2024/04/22 06:26:26;;;;;;;4.53;1.35;;;22.90;99.90;;;;;;5382383;26;20036;-52
2024/04/22 06:28:53;;;;;;;3.55;1.13;;;22.90;99.90;;;;;;5410162;26;20002;-52
2024/04/22 06:31:19;;;;;;;3.45;1.20;;;22.90;99.90;;;;;;5382240;26;20448;-52
2024/04/22 06:33:44;;;;;;;3.47;1.30;;;22.90;99.90;;;;;;5382098;26;20000;-52
2024/04/22 06:36:11;;;;;;;2.67;1.20;;;22.90;99.90;;;;;;5381959;26;20452;-52
2024/04/22 06:38:38;;;;;;;2.00;1.23;;;22.90;99.90;;;;;;5382024;26;20011;-52
2024/04/22 06:41:04;;;;;;;3.60;1.67;;;22.80;99.90;;;;;;5381967;26;20033;-52
2024/04/22 06:43:30;;;;;;;4.40;1.13;;;22.90;99.90;;;;;;5381986;26;20400;-52
2024/04/22 06:45:56;;;;;;;3.97;1.48;;;22.90;99.90;;;;;;5380416;26;20024;-52
2024/04/22 06:48:22;;;;;;;3.15;1.30;;;22.90;99.90;;;;;;5409620;26;20007;-52
2024/04/22 06:50:49;;;;;;;2.30;1.20;;;22.90;99.90;;;;;;5381960;26;20008;-52
2024/04/22 06:53:17;;;;;;;5.97;1.77;;;22.90;99.90;;;;;;5381496;26;20040;-52
2024/04/22 06:55:43;;;;;;;2.17;1.27;;;22.90;99.90;;;;;;5370289;26;20000;-52
2024/04/22 06:58:09;;;;;;;2.65;1.20;;;22.90;99.90;;;;;;5352851;26;20030;-52
2024/04/22 07:00:35;;;;;;;3.50;1.52;;;22.90;99.90;;;;;;5367697;26;20000;-52
2024/04/22 07:03:01;;;;;;;3.67;1.20;;;22.80;99.90;;;;;;5381534;26;19996;-52
2024/04/22 07:05:26;;;;;;;4.03;1.83;;;22.90;99.90;;;;;;5409458;26;19997;-52
2024/04/22 07:07:52;;;;;;;3.45;1.23;;;22.80;99.90;;;;;;5380449;26;20317;-52
2024/04/22 07:10:18;;;;;;;2.28;1.55;;;22.80;99.90;;;;;;5380650;26;20372;-52
2024/04/22 07:12:44;;;;;;;2.80;1.20;;;22.80;99.90;;;;;;5376986;26;20040;-52
2024/04/22 07:15:10;;;;;;;3.67;1.50;;;22.90;99.90;;;;;;5405959;26;20389;-52
2024/04/22 07:17:36;;;;;;;3.33;1.25;;;22.90;99.90;;;;;;5378009;26;20818;-52
2024/04/22 07:20:04;;;;;;;5.68;1.73;;;22.90;99.90;;;;;;5405849;26;20031;-52
2024/04/22 07:22:32;;;;;;;4.88;1.85;;;22.90;99.90;;;;;;5376090;26;20395;-52
2024/04/22 07:24:58;;;;;;;3.35;1.45;;;22.90;99.90;;;;;;5377758;26;20036;-52
2024/04/22 07:27:25;;;;;;;3.88;2.22;;;22.90;99.90;;;;;;5407294;26;20456;-52
2024/04/22 07:29:51;;;;;;;3.58;1.63;;;22.90;99.90;;;;;;5381288;26;19996;-52
2024/04/22 07:32:17;;;;;;;6.07;1.92;;;22.90;99.90;;;;;;5381159;26;20464;-52
2024/04/22 07:34:43;;;;;;;4.43;1.92;;;22.90;99.90;;;;;;5381100;26;20000;-52
2024/04/22 07:37:28;;;;;;;2.83;1.67;;;22.90;99.90;;;;;;5408798;26;20011;-52
2024/04/22 07:40:03;;;;;;;3.75;1.83;;;22.90;99.90;;;;;;5381390;26;20110;-52
2024/04/22 07:42:29;;;;;;;4.60;1.60;;;22.90;99.90;;;;;;5381415;26;20008;-52
2024/04/22 07:44:54;;;;;;;3.63;2.13;;;22.90;99.90;;;;;;5381288;26;20303;-52
2024/04/22 07:47:20;;;;;;;4.60;2.30;;;22.90;99.90;;;;;;5380952;26;20007;-52
2024/04/22 07:49:46;;;;;;;6.60;2.95;;;22.90;99.90;;;;;;5379081;26;20074;-52
2024/04/22 07:52:12;;;;;;;6.28;2.72;;;22.90;99.90;;;;;;5381007;26;20004;-52
2024/04/22 07:54:38;;;;;;;6.70;3.33;;;22.90;99.90;;;;;;5349937;26;20000;-52
2024/04/22 07:57:04;;;;;;;7.43;3.42;;;22.90;99.90;;;;;;5381072;26;20000;-52
2024/04/22 07:59:30;;;;;;;7.47;4.22;;;22.90;99.90;;;;;;5379321;26;20032;-52
2024/04/22 08:01:56;;;;;;;7.65;4.07;;;22.90;99.90;;;;;;5380823;26;20072;-52
2024/04/22 08:04:22;;;;;;;7.82;4.40;;;22.90;99.90;;;;;;5379605;26;20007;-52
2024/04/22 08:06:52;;;;;;;7.35;3.95;;;22.90;99.90;;;;;;5380868;26;20420;-52
2024/04/22 08:09:17;;;;;;;6.90;4.13;;;22.90;99.90;;;;;;5380621;26;20020;-52
2024/04/22 08:11:44;;;;;;;8.30;4.47;;;22.90;99.90;;;;;;5380575;26;20011;-52
2024/04/22 08:14:09;;;;;;;8.10;4.43;;;22.90;99.90;;;;;;5380543;26;20004;-52
2024/04/22 08:16:35;;;;;;;7.15;3.80;;;22.90;99.90;;;;;;5378696;26;20000;-52
2024/04/22 08:19:01;;;;;;;7.45;4.03;;;22.90;99.90;;;;;;5380941;26;20051;-52
2024/04/22 08:21:27;;;;;;;9.18;4.35;;;22.90;99.90;;;;;;5380425;26;20393;-52
2024/04/22 08:23:52;;;;;;;8.90;4.43;;;22.90;99.90;;;;;;5378586;26;20006;-52
2024/04/22 08:26:18;;;;;;;9.10;4.10;;;22.90;99.90;;;;;;5380455;26;20012;-52
2024/04/22 08:28:44;;;;;;;7.25;3.92;;;22.90;99.90;;;;;;5380420;26;20000;-53
2024/04/22 08:31:09;;;;;;;6.55;3.92;;;22.90;99.90;;;;;;5380136;26;20007;-52
2024/04/22 08:33:35;;;;;;;14.02;4.90;;;22.90;99.90;;;;;;5408134;26;20518;-53
2024/04/22 08:36:02;;;;;;;10.40;4.03;;;22.90;99.90;;;;;;5380462;26;20352;-52
2024/04/22 08:38:28;;;;;;;10.48;4.47;;;22.90;99.90;;;;;;5378478;26;20007;-52
2024/04/22 08:40:55;;;;;;;8.52;3.95;;;22.90;99.90;;;;;;5380350;26;19996;-52
2024/04/22 08:43:23;;;;;;;7.47;3.78;;;23.00;99.90;;;;;;5380107;26;20004;-53
2024/04/22 08:45:48;;;;;;;;;;;22.90;99.90;;;;;;5380685;26;20437;-52
2024/04/22 08:48:15;;;;;;;7.25;3.55;;;23.00;99.90;;;;;;5380199;26;19925;-52
2024/04/22 08:50:41;;;;;;;10.88;4.60;;;23.00;99.90;;;;;;5379990;26;19996;-52
2024/04/22 08:53:11;;;;;;;5.32;3.25;;;23.00;99.90;;;;;;5378164;26;19992;-52
2024/04/22 08:55:38;;;;;;;6.38;3.58;;;22.90;99.90;;;;;;5379891;26;20036;-52
2024/04/22 08:58:05;;;;;;;7.20;3.90;;;23.00;99.90;;;;;;5380201;26;20048;-52
2024/04/22 09:00:31;;;;;;;7.07;3.37;;;22.90;99.90;;;;;;5379873;26;20000;-52
2024/04/22 09:02:57;;;;;;;5.43;4.03;;;23.00;99.90;;;;;;5379836;26;20011;-52
2024/04/22 09:05:23;;;;;;;6.20;3.45;;;22.90;99.90;;;;;;5379990;26;19996;-52
2024/04/22 09:07:53;;;;;;;5.93;3.30;;;23.00;99.90;;;;;;5380020;26;20012;-52
2024/04/22 09:10:19;;;;;;;7.65;3.35;;;22.90;99.90;;;;;;5379673;26;20393;-52
2024/04/22 09:12:59;;;;;;;6.38;3.45;;;23.00;99.90;;;;;;5379534;26;20407;-52
2024/04/22 09:15:25;;;;;;;6.55;2.90;;;23.00;99.90;;;;;;5381339;26;20073;-52
2024/04/22 09:17:51;;;;;;;8.52;3.28;;;23.00;99.90;;;;;;5383270;26;20033;-52
2024/04/22 09:20:20;;;;;;;6.18;3.25;;;23.00;99.90;;;;;;5383223;26;20011;-52
2024/04/22 09:22:46;;;;;;;6.40;3.40;;;23.00;99.90;;;;;;5383080;26;20037;-52
2024/04/22 09:25:14;;;;;;;4.43;2.47;;;23.00;99.90;;;;;;5382983;26;20000;-52
2024/04/22 09:27:44;;;;;;;5.93;3.05;;;23.00;99.90;;;;;;5382936;26;20008;-52
2024/04/22 09:30:12;;;;;;;6.00;2.97;;;23.00;99.90;;;;;;5383176;26;20372;-52
2024/04/22 09:32:45;;;;;;;5.80;3.25;;;23.00;99.90;;;;;;5410559;26;20007;-53
2024/04/22 09:35:16;;;;;;;6.32;3.13;;;23.00;99.90;;;;;;5381211;26;20329;-52
2024/04/22 09:37:48;;;;;;;5.72;3.00;;;23.00;99.90;;;;;;5382772;26;20011;-53
2024/04/22 09:40:15;;;;;;;5.88;2.80;;;23.00;99.90;;;;;;5382846;26;20325;-52
2024/04/22 09:42:43;;;;;;;6.60;3.10;;;23.00;99.90;;;;;;5382827;26;19997;-52
2024/04/22 09:45:09;;;;;;;4.68;2.78;;;23.00;99.90;;;;;;5410420;26;20000;-53
2024/04/22 09:47:38;;;;;;;5.77;2.43;;;23.00;99.90;;;;;;5382912;26;20010;-53
2024/04/22 09:50:05;;;;;;;7.38;3.00;;;23.00;99.90;;;;;;5382733;26;20267;-53
2024/04/22 09:52:50;;;;;;;7.47;3.35;;;23.00;99.90;;;;;;5382756;26;20070;-53
2024/04/22 09:55:16;;;;;;;6.57;2.92;;;23.00;99.90;;;;;;5382531;26;20010;-53
2024/04/22 09:57:44;;;;;;;6.97;3.10;;;23.00;99.90;;;;;;5382502;26;20011;-52
2024/04/22 10:00:15;;;;;;;5.78;2.95;;;23.10;99.90;;;;;;5380842;26;20008;-52
2024/04/22 10:02:41;;;;;;;8.50;3.15;;;23.10;99.90;;;;;;5380415;26;19996;-52
2024/04/22 10:05:11;;;;;;;5.60;2.60;;;23.10;99.90;;;;;;5382482;26;20039;-52
2024/04/22 10:07:39;;;;;;;8.23;3.42;;;23.10;99.90;;;;;;5382667;26;20000;-52
2024/04/22 10:10:08;;;;;;;5.93;3.15;;;23.10;99.90;;;;;;5382443;26;20881;-52
2024/04/22 10:12:35;;;;;;;8.45;3.10;;;23.10;99.90;;;;;;5380386;26;19997;-52
2024/04/22 10:15:12;;;;;;;7.33;3.30;;;23.10;99.90;;;;;;5382350;26;19996;-52
2024/04/22 10:17:39;;;;;;;5.72;3.17;;;23.10;99.90;;;;;;5382573;26;20008;-52
2024/04/22 10:20:12;;;;;;;5.43;3.22;;;23.10;99.90;;;;;;5367867;26;19992;-52
2024/04/22 10:22:38;;;;;;;7.32;3.47;;;23.10;99.90;;;;;;5363367;26;20011;-52
2024/04/22 10:25:07;;;;;;;10.75;3.97;;;23.10;99.90;;;;;;5354509;26;20075;-52
2024/04/22 10:27:34;;;;;;;9.45;4.03;;;23.10;99.90;;;;;;5380695;26;20007;-52
2024/04/22 10:30:01;;;;;;;6.63;3.05;;;23.20;99.90;;;;;;5381484;26;20000;-52
2024/04/22 10:32:27;;;;;;;9.00;2.83;;;23.20;99.90;;;;;;5381478;26;20409;-52
2024/04/22 10:34:53;;;;;;;5.65;3.08;;;23.20;99.90;;;;;;5381225;26;20701;-52
2024/04/22 10:37:20;;;;;;;8.77;3.63;;;23.20;99.90;;;;;;5381255;26;20011;-52
2024/04/22 10:39:47;;;;;;;9.52;3.58;;;23.20;99.90;;;;;;5380947;26;19996;-52
2024/04/22 10:42:14;;;;;;;6.82;3.00;;;23.20;99.90;;;;;;5377914;26;20600;-52
2024/04/22 10:44:41;;;;;;;6.95;3.00;;;23.20;99.90;;;;;;5378299;26;20002;-52
2024/04/22 10:47:08;;;;;;;7.00;2.95;;;23.30;99.90;;;;;;5378355;26;19996;-52
2024/04/22 10:49:34;;;;;;;5.75;2.55;;;23.30;99.90;;;;;;5378009;26;19992;-52
2024/04/22 10:52:03;;;;;;;9.32;2.58;;;23.30;99.90;;;;;;5377998;26;20428;-52
2024/04/22 10:54:29;;;;;;;6.97;3.40;;;23.30;99.90;;;;;;5378128;26;20006;-52
2024/04/22 10:56:55;;;;;;;11.40;3.13;;;23.30;99.90;;;;;;5378886;26;20119;-52
2024/04/22 10:59:21;;;;;;;8.98;2.85;;;23.30;99.90;;;;;;5381371;26;20379;-52
2024/04/22 11:01:47;;;;;;;7.65;2.85;;;23.30;99.90;;;;;;5381481;26;20005;-51
2024/04/22 11:04:13;;;;;;;8.13;3.22;;;23.30;99.90;;;;;;5381797;26;20004;-51
2024/04/22 11:06:40;;;;;;;8.48;3.10;;;23.30;99.90;;;;;;5380280;26;20440;-52
2024/04/22 11:09:07;;;;;;;8.23;2.95;;;23.30;99.90;;;;;;5381543;26;20004;-52
2024/04/22 11:11:35;;;;;;;8.10;2.67;;;23.30;99.90;;;;;;5381417;26;20312;-51
2024/04/22 11:14:03;;;;;;;8.30;2.55;;;23.40;99.90;;;;;;5381486;26;19996;-51
2024/04/22 11:16:29;;;;;;;7.45;2.38;;;23.40;99.90;;;;;;5381396;26;20008;-52
2024/04/22 11:19:02;;;;;;;9.13;3.05;;;23.40;99.90;;;;;;5379551;26;19996;-52
2024/04/22 11:21:40;;;;;;;7.35;2.40;;;23.40;99.90;;;;;;5379356;26;20000;-52
2024/04/22 11:24:07;;;;;;;5.15;2.40;;;23.40;99.90;;;;;;5379427;26;20444;-52
2024/04/22 11:26:34;;;;;;;5.15;2.15;;;23.40;99.90;;;;;;5381104;26;19996;-51
2024/04/22 11:29:03;;;;;;;8.02;3.00;;;23.50;99.90;;;;;;5380877;26;19997;-52
2024/04/22 11:31:28;;;;;;;7.55;2.63;;;23.50;99.90;;;;;;5381069;26;20548;-52
2024/04/22 11:33:54;;;;;;;5.30;2.15;;;23.50;99.90;;;;;;5381064;26;20008;-52
2024/04/22 11:36:20;;;;;;;6.28;2.30;;;23.50;99.90;;;;;;5379255;26;20000;-52
2024/04/22 11:38:46;;;;;;;6.75;2.65;;;23.50;99.90;;;;;;5407319;26;20366;-52
2024/04/22 11:41:12;;;;;;;5.43;1.98;;;23.50;99.90;;;;;;5379562;26;20398;-52
2024/04/22 11:43:38;;;;;;;6.97;2.38;;;23.50;99.90;;;;;;5381047;26;20001;-52
2024/04/22 11:46:04;;;;;;;7.43;2.00;;;23.50;99.90;;;;;;5381207;26;20011;-52
2024/04/22 11:48:30;;;;;;;6.57;2.55;;;23.50;99.90;;;;;;5408818;26;20024;-52
2024/04/22 11:50:55;;;;;;;8.18;2.67;;;23.50;99.90;;;;;;5380846;26;19996;-52
2024/04/22 11:53:21;;;;;;;8.73;2.47;;;23.60;99.90;;;;;;5380860;26;20522;-52
2024/04/22 11:55:49;;;;;;;13.88;2.35;;;23.60;99.90;;;;;;5381138;26;20379;-52
2024/04/22 11:58:15;;;;;;;7.95;2.80;;;23.60;99.90;;;;;;5381680;26;20098;-52
2024/04/22 12:00:42;;;;;;;8.23;2.53;;;23.60;99.90;;;;;;5379347;26;20008;-51
2024/04/22 12:03:08;;;;;;;9.85;2.63;;;23.60;99.90;;;;;;5381390;26;20077;-51
2024/04/22 12:05:34;;;;;;;7.68;2.28;;;23.60;99.90;;;;;;5379203;26;20010;-51
2024/04/22 12:07:59;;;;;;;3.60;1.98;;;23.60;99.90;;;;;;5408714;26;20008;-51
2024/04/22 12:10:25;;;;;;;4.07;1.90;;;23.60;99.90;;;;;;5380801;26;20010;-51
2024/04/22 12:12:51;;;;;;;5.97;2.83;;;23.70;99.90;;;;;;5408731;26;20073;-51
2024/04/22 12:15:19;;;;;;;5.93;2.20;;;23.70;99.90;;;;;;5379038;26;19996;-51
2024/04/22 12:17:46;;;;;;;4.30;2.53;;;23.70;99.90;;;;;;5381096;26;20436;-51
2024/04/22 12:20:12;;;;;;;10.23;3.17;;;23.70;99.90;;;;;;5380824;26;20007;-51
2024/04/22 12:22:38;;;;;;;7.43;2.30;;;23.70;99.90;;;;;;5378905;26;20437;-51
2024/04/22 12:25:04;;;;;;;5.35;2.40;;;23.70;99.90;;;;;;5407965;26;20223;-51
2024/04/22 12:27:31;;;;;;;5.72;3.22;;;23.70;99.90;;;;;;5380489;26;20116;-51
2024/04/22 12:29:57;;;;;;;6.40;2.80;;;23.70;99.90;;;;;;5380408;26;19997;-51
2024/04/22 12:32:24;;;;;;;8.95;2.70;;;23.70;99.90;;;;;;5380406;26;20007;-51
2024/04/22 12:34:50;;;;;;;8.80;2.73;;;23.70;99.90;;;;;;5380488;26;20032;-51
2024/04/22 12:37:15;;;;;;;6.55;2.30;;;23.70;99.90;;;;;;5380576;26;20222;-51
2024/04/22 12:39:41;;;;;;;7.75;3.20;;;23.80;99.90;;;;;;5380166;26;20011;-51
2024/04/22 12:42:07;;;;;;;8.00;2.58;;;23.80;99.90;;;;;;5380446;26;20010;-51
2024/04/22 12:44:33;;;;;;;8.60;2.65;;;23.80;99.90;;;;;;5378561;26;19997;-51
2024/04/22 12:52:27;;;;;;;7.70;2.25;;;23.80;99.90;;;;;;5383806;26;20488;-51
2024/04/22 12:54:53;;;;;;;8.07;2.50;;;23.80;99.90;;;;;;5381869;26;20000;-51
2024/04/22 12:57:19;;;;;;;9.30;2.10;;;23.80;99.90;;;;;;5383514;26;19996;-52
2024/04/22 12:59:44;;;;;;;4.90;2.20;;;23.80;99.90;;;;;;5383671;26;20007;-52
2024/04/22 13:02:11;;;;;;;7.70;2.00;;;23.80;99.90;;;;;;5383394;26;20343;-52